sensor_id;sensor_type;location;lat;lon;timestamp;temperature;humidity
46440;DHT22;32138;50.966;6.968;2023-05-07T00:00:23;16.60;99.90
46440;DHT22;32138;50.966;6.968;2023-05-07T00:01:24;16.50;99.90
46440;DHT22;32138;50.966;6.968;2023-05-07T00:02:26;16.50;99.90
46440;DHT22;32138;50.966;6.968;2023-05-07T00:03:27;16.50;99.90
46440;DHT22;32138;50.966;6.968;2023-05-07T00:04:28;16.50;99.90
46440;DHT22;32138;50.966;6.968;2023-05-07T00:05:28;16.60;99.90
46440;DHT22;32138;50.966;6.968;2023-05-07T00:06:31;16.50;99.90
46440;DHT22;32138;50.966;6.968;2023-05-07T00:07:32;16.50;99.90
46440;DHT22;32138;50.966;6.968;2023-05-07T00:08:33;16.50;99.90
46440;DHT22;32138;50.966;6.968;2023-05-07T00:09:35;16.50;99.90
46440;DHT22;32138;50.966;6.968;2023-05-07T00:10:36;16.40;99.90
46440;DHT22;32138;50.966;6.968;2023-05-07T00:11:37;16.30;99.90
46440;DHT22;32138;50.966;6.968;2023-05-07T00:12:38;16.40;99.90
46440;DHT22;32138;50.966;6.968;2023-05-07T00:13:39;16.50;99.90
46440;DHT22;32138;50.966;6.968;2023-05-07T00:14:40;16.50;99.90
46440;DHT22;32138;50.966;6.968;2023-05-07T00:15:41;16.50;99.90
46440;DHT22;32138;50.966;6.968;2023-05-07T00:16:42;16.40;99.90
46440;DHT22;32138;50.966;6.968;2023-05-07T00:17:42;16.40;99.90
46440;DHT22;32138;50.966;6.968;2023-05-07T00:18:44;16.50;99.90
46440;DHT22;32138;50.966;6.968;2023-05-07T00:19:45;16.50;99.90
46440;DHT22;32138;50.966;6.968;2023-05-07T00:20:46;16.50;99.90
46440;DHT22;32138;50.966;6.968;2023-05-07T00:21:47;16.50;99.90
46440;DHT22;32138;50.966;6.968;2023-05-07T00:22:48;16.50;99.90
46440;DHT22;32138;50.966;6.968;2023-05-07T00:23:49;16.50;99.90
46440;DHT22;32138;50.966;6.968;2023-05-07T00:24:50;16.50;99.90
46440;DHT22;32138;50.966;6.968;2023-05-07T00:25:50;16.40;99.90
46440;DHT22;32138;50.966;6.968;2023-05-07T00:26:51;16.40;99.90
46440;DHT22;32138;50.966;6.968;2023-05-07T00:27:53;16.50;99.90
46440;DHT22;32138;50.966;6.968;2023-05-07T00:28:53;16.30;99.90
46440;DHT22;32138;50.966;6.968;2023-05-07T00:29:54;16.30;99.90
46440;DHT22;32138;50.966;6.968;2023-05-07T00:30:55;16.20;99.90
46440;DHT22;32138;50.966;6.968;2023-05-07T00:31:56;16.10;99.90
46440;DHT22;32138;50.966;6.968;2023-05-07T00:32:57;16.10;99.90
46440;DHT22;32138;50.966;6.968;2023-05-07T00:33:57;16.10;99.90
46440;DHT22;32138;50.966;6.968;2023-05-07T00:34:58;16.00;99.90
46440;DHT22;32138;50.966;6.968;2023-05-07T00:35:59;16.00;99.90
46440;DHT22;32138;50.966;6.968;2023-05-07T00:37:02;16.00;99.90
46440;DHT22;32138;50.966;6.968;2023-05-07T00:38:02;16.00;99.90
46440;DHT22;32138;50.966;6.968;2023-05-07T00:39:03;15.90;99.90
46440;DHT22;32138;50.966;6.968;2023-05-07T00:40:05;15.80;99.90
46440;DHT22;32138;50.966;6.968;2023-05-07T00:41:07;15.70;99.90
46440;DHT22;32138;50.966;6.968;2023-05-07T00:42:08;15.70;99.90
46440;DHT22;32138;50.966;6.968;2023-05-07T00:43:09;15.60;99.90
46440;DHT22;32138;50.966;6.968;2023-05-07T00:44:10;15.60;99.90
46440;DHT22;32138;50.966;6.968;2023-05-07T00:45:11;15.70;99.90
46440;DHT22;32138;50.966;6.968;2023-05-07T00:46:13;15.80;99.90
46440;DHT22;32138;50.966;6.968;2023-05-07T00:47:14;15.90;99.90
46440;DHT22;32138;50.966;6.968;2023-05-07T00:48:15;15.80;99.90
46440;DHT22;32138;50.966;6.968;2023-05-07T00:49:16;15.90;99.90
46440;DHT22;32138;50.966;6.968;2023-05-07T00:50:18;15.80;99.90
46440;DHT22;32138;50.966;6.968;2023-05-07T00:51:19;15.70;99.90
46440;DHT22;32138;50.966;6.968;2023-05-07T00:52:21;15.70;99.90
46440;DHT22;32138;50.966;6.968;2023-05-07T00:53:24;15.70;99.90
46440;DHT22;32138;50.966;6.968;2023-05-07T00:54:25;15.70;99.90
46440;DHT22;32138;50.966;6.968;2023-05-07T00:55:26;15.70;99.90
46440;DHT22;32138;50.966;6.968;2023-05-07T00:56:27;15.80;99.90
46440;DHT22;32138;50.966;6.968;2023-05-07T00:57:28;15.80;99.90
46440;DHT22;32138;50.966;6.968;2023-05-07T00:58:29;16.00;99.90
46440;DHT22;32138;50.966;6.968;2023-05-07T00:59:32;16.10;99.90
46440;DHT22;32138;50.966;6.968;2023-05-07T01:00:34;16.10;99.90
46440;DHT22;32138;50.966;6.968;2023-05-07T01:01:34;16.10;99.90
46440;DHT22;32138;50.966;6.968;2023-05-07T01:02:37;16.10;99.90
46440;DHT22;32138;50.966;6.968;2023-05-07T01:03:39;16.00;99.90
46440;DHT22;32138;50.966;6.968;2023-05-07T01:04:40;16.00;99.90
46440;DHT22;32138;50.966;6.968;2023-05-07T01:05:41;16.00;99.90
46440;DHT22;32138;50.966;6.968;2023-05-07T01:06:42;16.10;99.90
46440;DHT22;32138;50.966;6.968;2023-05-07T01:07:45;16.10;99.90
46440;DHT22;32138;50.966;6.968;2023-05-07T01:08:50;16.20;99.90
46440;DHT22;32138;50.966;6.968;2023-05-07T01:09:53;16.00;99.90
46440;DHT22;32138;50.966;6.968;2023-05-07T01:10:55;16.00;99.90
46440;DHT22;32138;50.966;6.968;2023-05-07T01:11:57;16.10;99.90
46440;DHT22;32138;50.966;6.968;2023-05-07T01:12:59;16.10;99.90
46440;DHT22;32138;50.966;6.968;2023-05-07T01:14:00;16.20;99.90
46440;DHT22;32138;50.966;6.968;2023-05-07T01:15:02;16.20;99.90
46440;DHT22;32138;50.966;6.968;2023-05-07T01:16:04;16.30;99.90
46440;DHT22;32138;50.966;6.968;2023-05-07T01:17:05;16.30;99.90
46440;DHT22;32138;50.966;6.968;2023-05-07T01:18:07;16.30;99.90
46440;DHT22;32138;50.966;6.968;2023-05-07T01:19:08;16.30;99.90
46440;DHT22;32138;50.966;6.968;2023-05-07T01:20:11;16.30;99.90
46440;DHT22;32138;50.966;6.968;2023-05-07T01:21:13;16.20;99.90
46440;DHT22;32138;50.966;6.968;2023-05-07T01:22:17;16.00;99.90
46440;DHT22;32138;50.966;6.968;2023-05-07T01:23:39;16.00;99.90
46440;DHT22;32138;50.966;6.968;2023-05-07T01:24:41;15.90;99.90
46440;DHT22;32138;50.966;6.968;2023-05-07T01:25:43;15.90;99.90
46440;DHT22;32138;50.966;6.968;2023-05-07T01:26:44;16.00;99.90
46440;DHT22;32138;50.966;6.968;2023-05-07T01:27:45;15.90;99.90
46440;DHT22;32138;50.966;6.968;2023-05-07T01:28:46;15.90;99.90
46440;DHT22;32138;50.966;6.968;2023-05-07T01:29:47;16.00;99.90
46440;DHT22;32138;50.966;6.968;2023-05-07T01:30:52;15.90;99.90
46440;DHT22;32138;50.966;6.968;2023-05-07T01:31:54;15.80;99.90
46440;DHT22;32138;50.966;6.968;2023-05-07T01:33:01;15.70;99.90
46440;DHT22;32138;50.966;6.968;2023-05-07T01:34:12;15.70;99.90
46440;DHT22;32138;50.966;6.968;2023-05-07T01:35:26;15.70;99.90
46440;DHT22;32138;50.966;6.968;2023-05-07T01:36:29;15.80;99.90
46440;DHT22;32138;50.966;6.968;2023-05-07T01:37:30;15.90;99.90
46440;DHT22;32138;50.966;6.968;2023-05-07T01:38:32;16.10;99.90
46440;DHT22;32138;50.966;6.968;2023-05-07T01:39:33;16.10;99.90
46440;DHT22;32138;50.966;6.968;2023-05-07T01:40:34;16.10;99.90
46440;DHT22;32138;50.966;6.968;2023-05-07T01:41:35;16.20;99.90
46440;DHT22;32138;50.966;6.968;2023-05-07T01:42:36;16.20;99.90
46440;DHT22;32138;50.966;6.968;2023-05-07T01:43:37;16.20;99.90
46440;DHT22;32138;50.966;6.968;2023-05-07T01:44:38;16.20;99.90
46440;DHT22;32138;50.966;6.968;2023-05-07T01:45:39;16.20;99.90
46440;DHT22;32138;50.966;6.968;2023-05-07T01:46:40;16.20;99.90
46440;DHT22;32138;50.966;6.968;2023-05-07T01:47:42;16.20;99.90
46440;DHT22;32138;50.966;6.968;2023-05-07T01:48:44;16.10;99.90
46440;DHT22;32138;50.966;6.968;2023-05-07T01:49:46;16.10;99.90
46440;DHT22;32138;50.966;6.968;2023-05-07T01:50:48;16.10;99.90
46440;DHT22;32138;50.966;6.968;2023-05-07T01:51:49;15.90;99.90
46440;DHT22;32138;50.966;6.968;2023-05-07T01:52:51;16.00;99.90
46440;DHT22;32138;50.966;6.968;2023-05-07T01:53:52;16.00;99.90
46440;DHT22;32138;50.966;6.968;2023-05-07T01:54:53;15.80;99.90
46440;DHT22;32138;50.966;6.968;2023-05-07T01:55:54;15.90;99.90
46440;DHT22;32138;50.966;6.968;2023-05-07T01:56:56;15.90;99.90
46440;DHT22;32138;50.966;6.968;2023-05-07T01:57:57;15.90;99.90
46440;DHT22;32138;50.966;6.968;2023-05-07T01:58:58;15.70;99.90
46440;DHT22;32138;50.966;6.968;2023-05-07T01:59:59;15.60;99.90
46440;DHT22;32138;50.966;6.968;2023-05-07T02:01:00;15.80;99.90
46440;DHT22;32138;50.966;6.968;2023-05-07T02:02:00;15.70;99.90
46440;DHT22;32138;50.966;6.968;2023-05-07T02:03:01;15.70;99.90
46440;DHT22;32138;50.966;6.968;2023-05-07T02:04:02;15.90;99.90
46440;DHT22;32138;50.966;6.968;2023-05-07T02:05:03;16.00;99.90
46440;DHT22;32138;50.966;6.968;2023-05-07T02:06:04;16.00;99.90
46440;DHT22;32138;50.966;6.968;2023-05-07T02:07:05;16.00;99.90
46440;DHT22;32138;50.966;6.968;2023-05-07T02:08:06;15.80;99.90
46440;DHT22;32138;50.966;6.968;2023-05-07T02:09:07;15.80;99.90
46440;DHT22;32138;50.966;6.968;2023-05-07T02:10:09;15.80;99.90
46440;DHT22;32138;50.966;6.968;2023-05-07T02:11:10;15.80;99.90
46440;DHT22;32138;50.966;6.968;2023-05-07T02:12:11;15.80;99.90
46440;DHT22;32138;50.966;6.968;2023-05-07T02:13:11;15.60;99.90
46440;DHT22;32138;50.966;6.968;2023-05-07T02:14:12;15.60;99.90
46440;DHT22;32138;50.966;6.968;2023-05-07T02:15:13;15.70;99.90
46440;DHT22;32138;50.966;6.968;2023-05-07T02:16:14;15.80;99.90
46440;DHT22;32138;50.966;6.968;2023-05-07T02:17:14;15.70;99.90
46440;DHT22;32138;50.966;6.968;2023-05-07T02:18:16;15.70;99.90
46440;DHT22;32138;50.966;6.968;2023-05-07T02:19:17;15.80;99.90
46440;DHT22;32138;50.966;6.968;2023-05-07T02:20:18;15.80;99.90
46440;DHT22;32138;50.966;6.968;2023-05-07T02:21:19;15.90;99.90
46440;DHT22;32138;50.966;6.968;2023-05-07T02:22:19;15.90;99.90
46440;DHT22;32138;50.966;6.968;2023-05-07T02:23:20;15.70;99.90
46440;DHT22;32138;50.966;6.968;2023-05-07T02:24:21;15.60;99.90
46440;DHT22;32138;50.966;6.968;2023-05-07T02:25:22;15.60;99.90
46440;DHT22;32138;50.966;6.968;2023-05-07T02:26:23;15.60;99.90
46440;DHT22;32138;50.966;6.968;2023-05-07T02:27:23;15.70;99.90
46440;DHT22;32138;50.966;6.968;2023-05-07T02:28:24;15.70;99.90
46440;DHT22;32138;50.966;6.968;2023-05-07T02:29:25;15.60;99.90
46440;DHT22;32138;50.966;6.968;2023-05-07T02:30:26;15.60;99.90
46440;DHT22;32138;50.966;6.968;2023-05-07T02:31:26;15.60;99.90
46440;DHT22;32138;50.966;6.968;2023-05-07T02:32:27;15.60;99.90
46440;DHT22;32138;50.966;6.968;2023-05-07T02:33:28;15.50;99.90
46440;DHT22;32138;50.966;6.968;2023-05-07T02:34:29;15.50;99.90
46440;DHT22;32138;50.966;6.968;2023-05-07T02:35:29;15.50;99.90
46440;DHT22;32138;50.966;6.968;2023-05-07T02:36:30;15.50;99.90
46440;DHT22;32138;50.966;6.968;2023-05-07T02:37:31;15.50;99.90
46440;DHT22;32138;50.966;6.968;2023-05-07T02:38:32;15.30;99.90
46440;DHT22;32138;50.966;6.968;2023-05-07T02:39:32;15.40;99.90
46440;DHT22;32138;50.966;6.968;2023-05-07T02:40:33;15.40;99.90
46440;DHT22;32138;50.966;6.968;2023-05-07T02:41:34;15.50;99.90
46440;DHT22;32138;50.966;6.968;2023-05-07T02:42:35;15.50;99.90
46440;DHT22;32138;50.966;6.968;2023-05-07T02:43:36;15.70;99.90
46440;DHT22;32138;50.966;6.968;2023-05-07T02:44:37;15.70;99.90
46440;DHT22;32138;50.966;6.968;2023-05-07T02:45:37;15.70;99.90
46440;DHT22;32138;50.966;6.968;2023-05-07T02:46:38;15.70;99.90
46440;DHT22;32138;50.966;6.968;2023-05-07T02:47:39;15.60;99.90
46440;DHT22;32138;50.966;6.968;2023-05-07T02:48:39;15.70;99.90
46440;DHT22;32138;50.966;6.968;2023-05-07T02:49:40;15.70;99.90
46440;DHT22;32138;50.966;6.968;2023-05-07T02:50:41;15.70;99.90
46440;DHT22;32138;50.966;6.968;2023-05-07T02:51:42;15.70;99.90
46440;DHT22;32138;50.966;6.968;2023-05-07T02:52:43;15.50;99.90
46440;DHT22;32138;50.966;6.968;2023-05-07T02:53:43;15.40;99.90
46440;DHT22;32138;50.966;6.968;2023-05-07T02:54:44;15.40;99.90
46440;DHT22;32138;50.966;6.968;2023-05-07T02:55:45;15.60;99.90
46440;DHT22;32138;50.966;6.968;2023-05-07T02:56:45;15.50;99.90
46440;DHT22;32138;50.966;6.968;2023-05-07T02:57:46;15.40;99.90
46440;DHT22;32138;50.966;6.968;2023-05-07T02:58:47;15.30;99.90
46440;DHT22;32138;50.966;6.968;2023-05-07T02:59:48;15.30;99.90
46440;DHT22;32138;50.966;6.968;2023-05-07T03:00:48;15.20;99.90
46440;DHT22;32138;50.966;6.968;2023-05-07T03:01:49;15.40;99.90
46440;DHT22;32138;50.966;6.968;2023-05-07T03:02:50;15.40;99.90
46440;DHT22;32138;50.966;6.968;2023-05-07T03:03:51;15.50;99.90
46440;DHT22;32138;50.966;6.968;2023-05-07T03:04:51;15.50;99.90
46440;DHT22;32138;50.966;6.968;2023-05-07T03:05:52;15.50;99.90
46440;DHT22;32138;50.966;6.968;2023-05-07T03:06:53;15.40;99.90
46440;DHT22;32138;50.966;6.968;2023-05-07T03:07:54;15.40;99.90
46440;DHT22;32138;50.966;6.968;2023-05-07T03:08:55;15.40;99.90
46440;DHT22;32138;50.966;6.968;2023-05-07T03:09:55;15.50;99.90
46440;DHT22;32138;50.966;6.968;2023-05-07T03:10:56;15.50;99.90
46440;DHT22;32138;50.966;6.968;2023-05-07T03:11:57;15.50;99.90
46440;DHT22;32138;50.966;6.968;2023-05-07T03:12:58;15.60;99.90
46440;DHT22;32138;50.966;6.968;2023-05-07T03:13:59;15.70;99.90
46440;DHT22;32138;50.966;6.968;2023-05-07T03:14:59;15.70;99.90
46440;DHT22;32138;50.966;6.968;2023-05-07T03:16:00;15.50;99.90
46440;DHT22;32138;50.966;6.968;2023-05-07T03:17:01;15.50;99.90
46440;DHT22;32138;50.966;6.968;2023-05-07T03:18:01;15.50;99.90
46440;DHT22;32138;50.966;6.968;2023-05-07T03:19:02;15.40;99.90
46440;DHT22;32138;50.966;6.968;2023-05-07T03:20:03;15.40;99.90
46440;DHT22;32138;50.966;6.968;2023-05-07T03:21:04;15.50;99.90
46440;DHT22;32138;50.966;6.968;2023-05-07T03:22:05;15.50;99.90
46440;DHT22;32138;50.966;6.968;2023-05-07T03:23:06;15.60;99.90
46440;DHT22;32138;50.966;6.968;2023-05-07T03:24:06;15.60;99.90
46440;DHT22;32138;50.966;6.968;2023-05-07T03:25:09;15.60;99.90
46440;DHT22;32138;50.966;6.968;2023-05-07T03:26:10;15.80;99.90
46440;DHT22;32138;50.966;6.968;2023-05-07T03:27:11;15.80;99.90
46440;DHT22;32138;50.966;6.968;2023-05-07T03:28:11;15.90;99.90
46440;DHT22;32138;50.966;6.968;2023-05-07T03:29:12;15.90;99.90
46440;DHT22;32138;50.966;6.968;2023-05-07T03:30:13;15.90;99.90
46440;DHT22;32138;50.966;6.968;2023-05-07T03:31:14;15.90;99.90
46440;DHT22;32138;50.966;6.968;2023-05-07T03:32:14;15.90;99.90
46440;DHT22;32138;50.966;6.968;2023-05-07T03:33:15;16.00;99.90
46440;DHT22;32138;50.966;6.968;2023-05-07T03:34:16;15.90;99.90
46440;DHT22;32138;50.966;6.968;2023-05-07T03:35:22;15.70;99.90
46440;DHT22;32138;50.966;6.968;2023-05-07T03:36:23;15.60;99.90
46440;DHT22;32138;50.966;6.968;2023-05-07T03:37:24;15.70;99.90
46440;DHT22;32138;50.966;6.968;2023-05-07T03:38:25;15.70;99.90
46440;DHT22;32138;50.966;6.968;2023-05-07T03:39:25;15.70;99.90
46440;DHT22;32138;50.966;6.968;2023-05-07T03:40:26;15.50;99.90
46440;DHT22;32138;50.966;6.968;2023-05-07T03:41:27;15.50;99.90
46440;DHT22;32138;50.966;6.968;2023-05-07T03:42:30;15.50;99.90
46440;DHT22;32138;50.966;6.968;2023-05-07T03:43:30;15.70;99.90
46440;DHT22;32138;50.966;6.968;2023-05-07T03:44:31;15.60;99.90
46440;DHT22;32138;50.966;6.968;2023-05-07T03:45:32;15.50;99.90
46440;DHT22;32138;50.966;6.968;2023-05-07T03:46:33;15.40;99.90
46440;DHT22;32138;50.966;6.968;2023-05-07T03:47:34;15.30;99.90
46440;DHT22;32138;50.966;6.968;2023-05-07T03:48:35;15.30;99.90
46440;DHT22;32138;50.966;6.968;2023-05-07T03:49:36;15.40;99.90
46440;DHT22;32138;50.966;6.968;2023-05-07T03:50:37;15.40;99.90
46440;DHT22;32138;50.966;6.968;2023-05-07T03:51:38;15.40;99.90
46440;DHT22;32138;50.966;6.968;2023-05-07T03:52:39;15.40;99.90
46440;DHT22;32138;50.966;6.968;2023-05-07T03:53:39;15.40;99.90
46440;DHT22;32138;50.966;6.968;2023-05-07T03:54:40;15.50;99.90
46440;DHT22;32138;50.966;6.968;2023-05-07T03:55:41;15.60;99.90
46440;DHT22;32138;50.966;6.968;2023-05-07T03:56:42;15.60;99.90
46440;DHT22;32138;50.966;6.968;2023-05-07T03:57:43;15.50;99.90
46440;DHT22;32138;50.966;6.968;2023-05-07T03:58:43;15.60;99.90
46440;DHT22;32138;50.966;6.968;2023-05-07T03:59:44;15.60;99.90
46440;DHT22;32138;50.966;6.968;2023-05-07T04:00:45;15.60;99.90
46440;DHT22;32138;50.966;6.968;2023-05-07T04:01:45;15.50;99.90
46440;DHT22;32138;50.966;6.968;2023-05-07T04:02:46;15.50;99.90
46440;DHT22;32138;50.966;6.968;2023-05-07T04:03:47;15.60;99.90
46440;DHT22;32138;50.966;6.968;2023-05-07T04:04:48;15.50;99.90
46440;DHT22;32138;50.966;6.968;2023-05-07T04:05:49;15.40;99.90
46440;DHT22;32138;50.966;6.968;2023-05-07T04:06:50;15.50;99.90
46440;DHT22;32138;50.966;6.968;2023-05-07T04:07:51;15.60;99.90
46440;DHT22;32138;50.966;6.968;2023-05-07T04:08:52;15.60;99.90
46440;DHT22;32138;50.966;6.968;2023-05-07T04:09:53;15.60;99.90
46440;DHT22;32138;50.966;6.968;2023-05-07T04:10:58;15.70;99.90
46440;DHT22;32138;50.966;6.968;2023-05-07T04:11:59;15.60;99.90
46440;DHT22;32138;50.966;6.968;2023-05-07T04:13:00;15.70;99.90
46440;DHT22;32138;50.966;6.968;2023-05-07T04:14:00;15.80;99.90
46440;DHT22;32138;50.966;6.968;2023-05-07T04:15:01;15.80;99.90
46440;DHT22;32138;50.966;6.968;2023-05-07T04:16:03;15.90;99.90
46440;DHT22;32138;50.966;6.968;2023-05-07T04:17:05;15.90;99.90
46440;DHT22;32138;50.966;6.968;2023-05-07T04:18:07;15.80;99.90
46440;DHT22;32138;50.966;6.968;2023-05-07T04:19:08;15.90;99.90
46440;DHT22;32138;50.966;6.968;2023-05-07T04:20:10;15.90;99.90
46440;DHT22;32138;50.966;6.968;2023-05-07T04:21:18;15.90;99.90
46440;DHT22;32138;50.966;6.968;2023-05-07T04:22:20;15.90;99.90
46440;DHT22;32138;50.966;6.968;2023-05-07T04:23:20;15.90;99.90
46440;DHT22;32138;50.966;6.968;2023-05-07T04:24:21;15.90;99.90
46440;DHT22;32138;50.966;6.968;2023-05-07T04:25:22;15.90;99.90
46440;DHT22;32138;50.966;6.968;2023-05-07T04:26:27;15.90;99.90
46440;DHT22;32138;50.966;6.968;2023-05-07T04:27:28;15.90;99.90
46440;DHT22;32138;50.966;6.968;2023-05-07T04:28:29;15.90;99.90
46440;DHT22;32138;50.966;6.968;2023-05-07T04:29:30;15.90;99.90
46440;DHT22;32138;50.966;6.968;2023-05-07T04:30:31;15.90;99.90
46440;DHT22;32138;50.966;6.968;2023-05-07T04:31:32;15.80;99.90
46440;DHT22;32138;50.966;6.968;2023-05-07T04:32:33;15.80;99.90
46440;DHT22;32138;50.966;6.968;2023-05-07T04:33:34;15.80;99.90
46440;DHT22;32138;50.966;6.968;2023-05-07T04:34:34;15.90;99.90
46440;DHT22;32138;50.966;6.968;2023-05-07T04:35:35;15.90;99.90
46440;DHT22;32138;50.966;6.968;2023-05-07T04:36:39;15.90;99.90
46440;DHT22;32138;50.966;6.968;2023-05-07T04:37:40;16.00;99.90
46440;DHT22;32138;50.966;6.968;2023-05-07T04:38:41;16.00;99.90
46440;DHT22;32138;50.966;6.968;2023-05-07T04:39:45;16.00;99.90
46440;DHT22;32138;50.966;6.968;2023-05-07T04:40:45;15.90;99.90
46440;DHT22;32138;50.966;6.968;2023-05-07T04:41:47;15.90;99.90
46440;DHT22;32138;50.966;6.968;2023-05-07T04:42:48;15.80;99.90
46440;DHT22;32138;50.966;6.968;2023-05-07T04:43:48;15.70;99.90
46440;DHT22;32138;50.966;6.968;2023-05-07T04:44:53;15.70;99.90
46440;DHT22;32138;50.966;6.968;2023-05-07T04:45:54;15.50;99.90
46440;DHT22;32138;50.966;6.968;2023-05-07T04:46:54;15.50;99.90
46440;DHT22;32138;50.966;6.968;2023-05-07T04:47:55;15.60;99.90
46440;DHT22;32138;50.966;6.968;2023-05-07T04:48:56;15.60;99.90
46440;DHT22;32138;50.966;6.968;2023-05-07T04:49:58;15.50;99.90
46440;DHT22;32138;50.966;6.968;2023-05-07T04:50:58;15.50;99.90
46440;DHT22;32138;50.966;6.968;2023-05-07T04:51:59;15.60;99.90
46440;DHT22;32138;50.966;6.968;2023-05-07T04:53:00;15.60;99.90
46440;DHT22;32138;50.966;6.968;2023-05-07T04:54:01;15.60;99.90
46440;DHT22;32138;50.966;6.968;2023-05-07T04:55:02;15.70;99.90
46440;DHT22;32138;50.966;6.968;2023-05-07T04:56:03;15.70;99.90
46440;DHT22;32138;50.966;6.968;2023-05-07T04:57:04;15.50;99.90
46440;DHT22;32138;50.966;6.968;2023-05-07T04:58:06;15.60;99.90
46440;DHT22;32138;50.966;6.968;2023-05-07T04:59:07;15.60;99.90
46440;DHT22;32138;50.966;6.968;2023-05-07T05:00:08;15.60;99.90
46440;DHT22;32138;50.966;6.968;2023-05-07T05:01:10;15.70;99.90
46440;DHT22;32138;50.966;6.968;2023-05-07T05:02:11;15.80;99.90
46440;DHT22;32138;50.966;6.968;2023-05-07T05:03:11;15.70;99.90
46440;DHT22;32138;50.966;6.968;2023-05-07T05:04:12;15.90;99.90
46440;DHT22;32138;50.966;6.968;2023-05-07T05:05:13;15.90;99.90
46440;DHT22;32138;50.966;6.968;2023-05-07T05:06:14;16.00;99.90
46440;DHT22;32138;50.966;6.968;2023-05-07T05:07:15;16.00;99.90
46440;DHT22;32138;50.966;6.968;2023-05-07T05:08:15;16.00;99.90
46440;DHT22;32138;50.966;6.968;2023-05-07T05:09:17;16.00;99.90
46440;DHT22;32138;50.966;6.968;2023-05-07T05:10:18;16.10;99.90
46440;DHT22;32138;50.966;6.968;2023-05-07T05:11:18;16.20;99.90
46440;DHT22;32138;50.966;6.968;2023-05-07T05:12:19;16.20;99.90
46440;DHT22;32138;50.966;6.968;2023-05-07T05:13:20;16.20;99.90
46440;DHT22;32138;50.966;6.968;2023-05-07T05:14:21;16.10;99.90
46440;DHT22;32138;50.966;6.968;2023-05-07T05:15:22;16.10;99.90
46440;DHT22;32138;50.966;6.968;2023-05-07T05:16:23;16.10;99.90
46440;DHT22;32138;50.966;6.968;2023-05-07T05:17:23;16.10;99.90
46440;DHT22;32138;50.966;6.968;2023-05-07T05:18:24;16.10;99.90
46440;DHT22;32138;50.966;6.968;2023-05-07T05:19:25;16.20;99.90
46440;DHT22;32138;50.966;6.968;2023-05-07T05:20:25;16.30;99.90
46440;DHT22;32138;50.966;6.968;2023-05-07T05:21:26;16.20;99.90
46440;DHT22;32138;50.966;6.968;2023-05-07T05:22:27;16.10;99.90
46440;DHT22;32138;50.966;6.968;2023-05-07T05:23:30;16.10;99.90
46440;DHT22;32138;50.966;6.968;2023-05-07T05:24:31;16.10;99.90
46440;DHT22;32138;50.966;6.968;2023-05-07T05:25:32;16.20;99.90
46440;DHT22;32138;50.966;6.968;2023-05-07T05:26:32;16.30;99.90
46440;DHT22;32138;50.966;6.968;2023-05-07T05:27:34;16.20;99.90
46440;DHT22;32138;50.966;6.968;2023-05-07T05:28:35;16.20;99.90
46440;DHT22;32138;50.966;6.968;2023-05-07T05:29:36;16.10;99.90
46440;DHT22;32138;50.966;6.968;2023-05-07T05:30:37;16.00;99.90
46440;DHT22;32138;50.966;6.968;2023-05-07T05:31:38;16.10;99.90
46440;DHT22;32138;50.966;6.968;2023-05-07T05:32:38;16.20;99.90
46440;DHT22;32138;50.966;6.968;2023-05-07T05:33:39;16.10;99.90
46440;DHT22;32138;50.966;6.968;2023-05-07T05:34:40;16.20;99.90
46440;DHT22;32138;50.966;6.968;2023-05-07T05:35:41;16.20;99.90
46440;DHT22;32138;50.966;6.968;2023-05-07T05:36:42;16.20;99.90
46440;DHT22;32138;50.966;6.968;2023-05-07T05:37:44;16.20;99.90
46440;DHT22;32138;50.966;6.968;2023-05-07T05:38:44;16.20;99.90
46440;DHT22;32138;50.966;6.968;2023-05-07T05:39:45;16.10;99.90
46440;DHT22;32138;50.966;6.968;2023-05-07T05:40:46;16.00;99.90
46440;DHT22;32138;50.966;6.968;2023-05-07T05:41:47;16.00;99.90
46440;DHT22;32138;50.966;6.968;2023-05-07T05:42:48;15.90;99.90
46440;DHT22;32138;50.966;6.968;2023-05-07T05:43:48;15.80;99.90
46440;DHT22;32138;50.966;6.968;2023-05-07T05:44:50;15.70;99.90
46440;DHT22;32138;50.966;6.968;2023-05-07T05:45:50;15.80;99.90
46440;DHT22;32138;50.966;6.968;2023-05-07T05:46:51;15.80;99.90
46440;DHT22;32138;50.966;6.968;2023-05-07T05:47:52;16.00;99.90
46440;DHT22;32138;50.966;6.968;2023-05-07T05:48:53;16.00;99.90
46440;DHT22;32138;50.966;6.968;2023-05-07T05:49:53;16.00;99.90
46440;DHT22;32138;50.966;6.968;2023-05-07T05:50:54;16.10;99.90
46440;DHT22;32138;50.966;6.968;2023-05-07T05:51:55;16.10;99.90
46440;DHT22;32138;50.966;6.968;2023-05-07T05:52:56;16.20;99.90
46440;DHT22;32138;50.966;6.968;2023-05-07T05:53:57;16.30;99.90
46440;DHT22;32138;50.966;6.968;2023-05-07T05:54:58;16.30;99.90
46440;DHT22;32138;50.966;6.968;2023-05-07T05:55:59;16.30;99.90
46440;DHT22;32138;50.966;6.968;2023-05-07T05:57:00;16.30;99.90
46440;DHT22;32138;50.966;6.968;2023-05-07T05:58:01;16.30;99.90
46440;DHT22;32138;50.966;6.968;2023-05-07T05:59:01;16.40;99.90
46440;DHT22;32138;50.966;6.968;2023-05-07T06:00:02;16.40;99.90
46440;DHT22;32138;50.966;6.968;2023-05-07T06:01:04;16.30;99.90
46440;DHT22;32138;50.966;6.968;2023-05-07T06:02:06;16.30;99.90
46440;DHT22;32138;50.966;6.968;2023-05-07T06:03:07;16.30;99.90
46440;DHT22;32138;50.966;6.968;2023-05-07T06:04:08;16.30;99.90
46440;DHT22;32138;50.966;6.968;2023-05-07T06:05:09;16.20;99.90
46440;DHT22;32138;50.966;6.968;2023-05-07T06:06:10;16.20;99.90
46440;DHT22;32138;50.966;6.968;2023-05-07T06:07:10;16.20;99.90
46440;DHT22;32138;50.966;6.968;2023-05-07T06:08:11;16.30;99.90
46440;DHT22;32138;50.966;6.968;2023-05-07T06:09:12;16.30;99.90
46440;DHT22;32138;50.966;6.968;2023-05-07T06:10:13;16.40;99.90
46440;DHT22;32138;50.966;6.968;2023-05-07T06:11:13;16.40;99.90
46440;DHT22;32138;50.966;6.968;2023-05-07T06:12:14;16.50;99.90
46440;DHT22;32138;50.966;6.968;2023-05-07T06:13:15;16.50;99.90
46440;DHT22;32138;50.966;6.968;2023-05-07T06:14:16;16.50;99.90
46440;DHT22;32138;50.966;6.968;2023-05-07T06:15:17;16.50;99.90
46440;DHT22;32138;50.966;6.968;2023-05-07T06:16:18;16.60;99.90
46440;DHT22;32138;50.966;6.968;2023-05-07T06:17:18;16.60;99.90
46440;DHT22;32138;50.966;6.968;2023-05-07T06:18:19;16.60;99.90
46440;DHT22;32138;50.966;6.968;2023-05-07T06:19:20;16.70;99.90
46440;DHT22;32138;50.966;6.968;2023-05-07T06:20:23;16.70;99.90
46440;DHT22;32138;50.966;6.968;2023-05-07T06:21:24;16.70;99.90
46440;DHT22;32138;50.966;6.968;2023-05-07T06:22:25;16.70;99.90
46440;DHT22;32138;50.966;6.968;2023-05-07T06:23:25;16.70;99.90
46440;DHT22;32138;50.966;6.968;2023-05-07T06:24:26;16.80;99.90
46440;DHT22;32138;50.966;6.968;2023-05-07T06:25:27;16.80;99.90
46440;DHT22;32138;50.966;6.968;2023-05-07T06:26:28;16.70;99.90